createdAt,value
2023-02-22T00:02:14.368Z,5.75
2023-02-22T00:04:43.005Z,5.70
2023-02-22T00:07:12.121Z,5.66
2023-02-22T00:09:41.119Z,5.61
2023-02-22T00:12:10.616Z,5.57
2023-02-22T00:14:40.651Z,5.52
2023-02-22T00:17:09.814Z,5.48
2023-02-22T00:19:39.114Z,5.43
2023-02-22T00:22:07.702Z,5.39
2023-02-22T00:24:37.131Z,5.34
2023-02-22T00:27:06.002Z,5.30
2023-02-22T00:29:36.514Z,5.25
2023-02-22T00:32:05.637Z,5.21
2023-02-22T00:34:34.298Z,5.16
2023-02-22T00:37:04.615Z,5.12
2023-02-22T00:39:33.426Z,5.06
2023-02-22T00:42:04.420Z,5.01
2023-02-22T00:44:33.757Z,4.96
2023-02-22T00:47:05.156Z,4.92
2023-02-22T00:49:34.303Z,4.87
2023-02-22T00:52:02.977Z,4.85
2023-02-22T00:54:32.578Z,4.83
2023-02-22T00:57:01.715Z,4.82
2023-02-22T00:59:31.598Z,4.81
2023-02-22T01:02:01.094Z,4.82
2023-02-22T01:04:30.214Z,4.82
2023-02-22T01:07:01.021Z,4.84
2023-02-22T01:09:29.717Z,4.85
2023-02-22T01:11:58.726Z,4.86
2023-02-22T01:14:29.049Z,4.87
2023-02-22T01:16:58.192Z,4.88
2023-02-22T01:19:26.734Z,4.89
2023-02-22T01:21:55.412Z,4.87
2023-02-22T01:24:24.074Z,4.87
2023-02-22T01:26:53.923Z,4.85
2023-02-22T01:29:23.106Z,4.83
2023-02-22T01:31:55.040Z,4.81
2023-02-22T01:34:25.286Z,4.79
2023-02-22T01:36:54.172Z,4.77
2023-02-22T01:39:23.053Z,4.74
2023-02-22T01:41:56.264Z,4.71
2023-02-22T01:44:32.256Z,4.68
2023-02-22T01:47:05.018Z,4.66
2023-02-22T01:49:45.844Z,4.63
2023-02-22T01:52:19.970Z,4.59
2023-02-22T01:54:53.461Z,4.57
2023-02-22T01:57:26.215Z,4.55
2023-02-22T01:59:58.912Z,4.53
2023-02-22T02:02:28.320Z,4.51
2023-02-22T02:04:58.146Z,4.50
2023-02-22T02:07:30.212Z,4.47
2023-02-22T02:10:01.312Z,4.44
2023-02-22T02:12:33.449Z,4.42
2023-02-22T02:15:32.312Z,4.39
2023-02-22T02:18:03.764Z,4.35
2023-02-22T02:20:44.533Z,4.32
2023-02-22T02:23:38.714Z,4.28
2023-02-22T02:26:41.192Z,4.26
2023-02-22T02:29:19.177Z,4.23
2023-02-22T02:32:23.912Z,4.21
2023-02-22T02:35:07.571Z,4.17
2023-02-22T02:38:05.733Z,4.15
2023-02-22T02:40:55.811Z,4.13
2023-02-22T02:43:42.958Z,4.13
2023-02-22T02:46:27.232Z,4.15
2023-02-22T02:49:10.910Z,4.15
2023-02-22T02:51:42.661Z,4.17
2023-02-22T02:54:12.711Z,4.20
2023-02-22T02:56:43.176Z,4.23
2023-02-22T02:59:34.545Z,4.26
2023-02-22T03:02:40.715Z,4.29
2023-02-22T03:05:24.351Z,4.33
2023-02-22T03:08:17.185Z,4.36
2023-02-22T03:10:59.712Z,4.39
2023-02-22T03:13:53.215Z,4.42
2023-02-22T03:16:48.136Z,4.45
2023-02-22T03:19:22.793Z,4.48
2023-02-22T03:22:00.855Z,4.51
2023-02-22T03:24:29.913Z,4.53
2023-02-22T03:27:24.180Z,4.55
2023-02-22T03:29:57.995Z,4.57
2023-02-22T03:32:31.311Z,4.60
2023-02-22T03:35:08.782Z,4.63
2023-02-22T03:37:44.621Z,4.67
2023-02-22T03:40:19.699Z,4.70
2023-02-22T03:42:52.336Z,4.72
2023-02-22T03:45:24.321Z,4.74
2023-02-22T03:48:01.420Z,4.78
2023-02-22T03:50:38.053Z,4.80
2023-02-22T03:53:08.176Z,4.83
2023-02-22T03:55:38.300Z,4.86
2023-02-22T03:58:11.521Z,4.89
2023-02-22T04:00:45.021Z,4.93
2023-02-22T04:03:13.880Z,4.95
2023-02-22T04:05:42.656Z,4.98
2023-02-22T04:08:11.677Z,4.99
2023-02-22T04:10:40.454Z,5.02
2023-02-22T04:13:11.194Z,5.05
2023-02-22T04:15:43.495Z,5.07
2023-02-22T04:18:13.173Z,5.09
2023-02-22T04:20:42.038Z,5.10
2023-02-22T04:23:21.784Z,5.10
2023-02-22T04:25:50.855Z,5.11
2023-02-22T04:28:20.396Z,5.10
2023-02-22T04:30:54.653Z,5.10
2023-02-22T04:33:23.719Z,5.09
2023-02-22T04:35:52.302Z,5.10
2023-02-22T04:38:20.942Z,5.08
2023-02-22T04:40:49.886Z,5.08
2023-02-22T04:43:20.071Z,5.08
2023-02-22T04:45:50.108Z,5.06
2023-02-22T04:48:18.885Z,5.06
2023-02-22T04:50:48.301Z,5.06
2023-02-22T04:53:17.882Z,5.06
2023-02-22T04:55:47.519Z,5.06
2023-02-22T04:58:16.366Z,5.07
2023-02-22T05:00:45.071Z,5.07
2023-02-22T05:03:13.974Z,5.06
2023-02-22T05:05:43.186Z,5.06
2023-02-22T05:08:11.957Z,5.06
2023-02-22T05:10:42.394Z,5.07
2023-02-22T05:13:12.184Z,5.07
2023-02-22T05:15:41.239Z,5.07
2023-02-22T05:18:10.173Z,5.08
2023-02-22T05:20:38.974Z,5.10
2023-02-22T05:23:07.732Z,5.11
2023-02-22T05:25:36.588Z,5.12
2023-02-22T05:28:11.969Z,5.13
2023-02-22T05:30:41.352Z,5.13
2023-02-22T05:33:10.571Z,5.13
2023-02-22T05:35:39.278Z,5.13
2023-02-22T05:38:09.194Z,5.15
2023-02-22T05:40:37.986Z,5.16
2023-02-22T05:43:07.799Z,5.17
2023-02-22T05:45:36.873Z,5.19
2023-02-22T05:48:05.995Z,5.21
2023-02-22T05:50:35.076Z,5.22
2023-02-22T05:53:03.858Z,5.22
2023-02-22T05:55:33.342Z,5.21
2023-02-22T05:58:02.134Z,5.20
2023-02-22T06:00:31.545Z,5.21
2023-02-22T06:03:03.189Z,5.22
2023-02-22T06:05:31.972Z,5.23
2023-02-22T06:08:00.772Z,5.26
2023-02-22T06:10:30.423Z,5.28
2023-02-22T06:12:59.880Z,5.31
2023-02-22T06:15:29.296Z,5.33
2023-02-22T06:17:59.509Z,5.36
2023-02-22T06:20:31.390Z,5.37
2023-02-22T06:23:00.257Z,5.38
2023-02-22T06:25:33.251Z,5.38
2023-02-22T06:28:02.855Z,5.38
2023-02-22T06:30:34.316Z,5.37
2023-02-22T06:33:03.330Z,5.36
2023-02-22T06:35:32.577Z,5.37
2023-02-22T06:38:03.109Z,5.39
2023-02-22T06:40:31.835Z,5.42
2023-02-22T06:43:00.748Z,5.45
2023-02-22T06:45:29.939Z,5.49
2023-02-22T06:47:58.986Z,5.51
2023-02-22T06:50:29.768Z,5.54
2023-02-22T06:52:59.133Z,5.57
2023-02-22T06:55:33.340Z,5.61
2023-02-22T06:58:03.485Z,5.65
2023-02-22T07:00:33.188Z,5.70
2023-02-22T07:03:03.711Z,5.76
2023-02-22T07:05:33.507Z,5.82
2023-02-22T07:08:05.740Z,5.88
2023-02-22T07:10:36.443Z,5.94
2023-02-22T07:13:07.291Z,6.00
2023-02-22T07:15:36.455Z,6.05
2023-02-22T07:18:06.473Z,6.10
2023-02-22T07:20:35.530Z,6.17
2023-02-22T07:23:08.241Z,6.25
2023-02-22T07:25:38.254Z,6.31
2023-02-22T07:28:07.536Z,6.38
2023-02-22T07:30:36.484Z,6.45
2023-02-22T07:33:08.320Z,6.51
2023-02-22T07:35:39.582Z,6.55
2023-02-22T07:38:10.501Z,6.59
2023-02-22T07:40:39.819Z,6.63
2023-02-22T07:43:18.132Z,6.69
2023-02-22T07:45:48.842Z,6.75
2023-02-22T07:48:19.045Z,6.81
2023-02-22T07:50:48.137Z,6.86
2023-02-22T07:53:30.690Z,6.93
2023-02-22T07:56:01.054Z,6.99
2023-02-22T07:58:31.226Z,7.06
2023-02-22T08:01:03.521Z,7.12
2023-02-22T08:03:38.321Z,7.18
2023-02-22T08:06:08.426Z,7.24
2023-02-22T08:08:37.330Z,7.29
2023-02-22T08:11:06.616Z,7.35
2023-02-22T08:13:37.698Z,7.42
2023-02-22T08:16:06.345Z,7.47
2023-02-22T08:18:35.139Z,7.52
2023-02-22T08:21:04.956Z,7.60
2023-02-22T08:23:38.360Z,7.65
2023-02-22T08:26:09.736Z,7.73
2023-02-22T08:28:38.483Z,7.82
2023-02-22T08:31:09.513Z,7.90
2023-02-22T08:33:38.974Z,7.99
2023-02-22T08:36:10.905Z,8.08
2023-02-22T08:38:41.332Z,8.16
2023-02-22T08:41:10.050Z,8.23
2023-02-22T08:43:38.985Z,8.29
2023-02-22T08:46:08.840Z,8.35
2023-02-22T08:48:37.692Z,8.44
2023-02-22T08:51:07.073Z,8.51
2023-02-22T08:53:36.790Z,8.58
2023-02-22T08:56:06.282Z,8.64
2023-02-22T08:58:35.683Z,8.69
2023-02-22T09:01:04.480Z,8.75
2023-02-22T09:03:33.760Z,8.82
2023-02-22T09:06:05.085Z,8.89
2023-02-22T09:08:33.959Z,8.94
2023-02-22T09:11:02.556Z,8.96
2023-02-22T09:13:34.465Z,8.98
2023-02-22T09:16:03.493Z,9.01
2023-02-22T09:18:43.484Z,9.05
2023-02-22T09:21:16.185Z,9.09
2023-02-22T09:23:48.016Z,9.11
2023-02-22T09:26:16.857Z,9.15
2023-02-22T09:28:45.701Z,9.21
2023-02-22T09:31:15.011Z,9.28
2023-02-22T09:33:45.870Z,9.36
2023-02-22T09:36:16.536Z,9.41
2023-02-22T09:38:46.703Z,9.45
2023-02-22T09:41:35.175Z,9.51
2023-02-22T09:44:17.165Z,9.59
2023-02-22T09:46:46.676Z,9.64
2023-02-22T09:49:34.537Z,9.68
2023-02-22T09:52:21.120Z,9.73
2023-02-22T09:55:07.407Z,9.80
2023-02-22T09:57:40.920Z,9.80
2023-02-22T10:00:18.751Z,9.83
2023-02-22T10:03:21.316Z,9.88
2023-02-22T10:06:13.150Z,9.94
2023-02-22T10:08:42.614Z,10.02
2023-02-22T10:11:28.392Z,10.10
2023-02-22T10:14:44.294Z,10.17
2023-02-22T10:17:31.508Z,10.25
2023-02-22T10:20:07.256Z,10.30
2023-02-22T10:22:43.780Z,10.36
2023-02-22T10:25:19.626Z,10.39
2023-02-22T10:28:00.610Z,10.42
2023-02-22T10:30:42.307Z,10.44
2023-02-22T10:33:27.225Z,10.46
2023-02-22T10:35:56.529Z,10.44
2023-02-22T10:38:28.065Z,10.45
2023-02-22T10:40:58.183Z,10.50
2023-02-22T10:43:27.191Z,10.53
2023-02-22T10:45:58.862Z,10.55
2023-02-22T10:48:30.728Z,10.56
2023-02-22T10:51:03.060Z,10.57
2023-02-22T10:53:36.459Z,10.59
2023-02-22T10:56:14.263Z,10.64
2023-02-22T10:59:06.313Z,10.70
2023-02-22T11:01:41.108Z,10.77
2023-02-22T11:04:16.539Z,10.78
2023-02-22T11:06:48.916Z,10.77
2023-02-22T11:09:22.970Z,10.79
2023-02-22T11:12:10.244Z,10.82
2023-02-22T11:14:39.550Z,10.85
2023-02-22T11:17:09.618Z,10.86
2023-02-22T11:19:39.872Z,10.85
2023-02-22T11:22:10.244Z,10.81
2023-02-22T11:27:29.800Z,10.77
2023-02-22T11:30:22.218Z,10.77
2023-02-22T11:33:04.116Z,10.79
2023-02-22T11:35:37.494Z,10.83
2023-02-22T11:38:17.552Z,10.88
2023-02-22T11:40:46.523Z,10.92
2023-02-22T11:43:21.143Z,10.96
2023-02-22T11:46:12.486Z,10.99
2023-02-22T11:49:06.472Z,10.99
2023-02-22T11:51:38.509Z,11.02
2023-02-22T11:54:33.728Z,11.04
2023-02-22T11:57:36.878Z,11.10
2023-02-22T12:00:25.096Z,11.16
2023-02-22T12:03:07.375Z,11.20
2023-02-22T12:05:48.198Z,11.24
2023-02-22T12:08:35.845Z,11.30
2023-02-22T12:11:11.188Z,11.35
2023-02-22T12:13:46.776Z,11.40
2023-02-22T12:16:23.214Z,11.42
2023-02-22T12:19:10.720Z,11.42
2023-02-22T12:21:41.642Z,11.42
2023-02-22T12:24:16.846Z,11.42
2023-02-22T12:27:00.485Z,11.38
2023-02-22T12:29:37.914Z,11.31
2023-02-22T12:32:46.289Z,11.29
2023-02-22T12:35:25.767Z,11.25
2023-02-22T12:38:02.124Z,11.24
2023-02-22T12:40:54.945Z,11.24
2023-02-22T12:43:56.040Z,11.27
2023-02-22T12:46:43.280Z,11.30
2023-02-22T12:49:20.651Z,11.32
2023-02-22T12:52:20.846Z,11.33
2023-02-22T12:55:23.256Z,11.34
2023-02-22T12:57:57.672Z,11.37
2023-02-22T13:00:29.122Z,11.37
2023-02-22T13:03:34.269Z,11.36
2023-02-22T13:06:11.845Z,11.37
2023-02-22T13:08:55.991Z,11.39
2023-02-22T13:11:49.613Z,11.40
2023-02-22T13:14:47.055Z,11.42
2023-02-22T13:17:28.677Z,11.41
2023-02-22T13:20:11.663Z,11.40
2023-02-22T13:22:41.319Z,11.36
2023-02-22T13:25:18.191Z,11.30
2023-02-22T13:27:52.820Z,11.26
2023-02-22T13:30:29.508Z,11.23
2023-02-22T13:33:16.951Z,11.22
2023-02-22T13:36:19.399Z,11.26
2023-02-22T13:39:19.870Z,11.31
2023-02-22T13:41:56.455Z,11.34
2023-02-22T13:44:53.058Z,11.35
2023-02-22T13:47:41.503Z,11.31
2023-02-22T13:50:54.639Z,11.29
2023-02-22T13:53:29.687Z,11.28
2023-02-22T13:56:02.004Z,11.27
2023-02-22T13:58:31.049Z,11.25
2023-02-22T14:01:01.087Z,11.25
2023-02-22T14:03:41.532Z,11.25
2023-02-22T14:06:33.288Z,11.25
2023-02-22T14:09:21.381Z,11.23
2023-02-22T14:11:54.874Z,11.18
2023-02-22T14:14:25.147Z,11.14
2023-02-22T14:17:26.134Z,11.09
2023-02-22T14:20:04.648Z,10.99
2023-02-22T14:22:33.360Z,10.94
2023-02-22T14:25:02.080Z,10.86
2023-02-22T14:27:41.017Z,10.80
2023-02-22T14:30:26.413Z,10.74
2023-02-22T14:32:57.020Z,10.67
2023-02-22T14:35:33.334Z,10.61
2023-02-22T14:38:18.667Z,10.54
2023-02-22T14:40:49.153Z,10.48
2023-02-22T14:43:20.388Z,10.44
2023-02-22T14:46:02.439Z,10.42
2023-02-22T14:48:40.242Z,10.41
2023-02-22T14:51:35.689Z,10.42
2023-02-22T14:54:35.665Z,10.40
2023-02-22T14:57:15.256Z,10.37
2023-02-22T15:00:23.044Z,10.33
2023-02-22T15:02:57.608Z,10.25
2023-02-22T15:05:30.670Z,10.19
2023-02-22T15:08:02.593Z,10.16
2023-02-22T15:10:31.731Z,10.09
2023-02-22T15:13:09.985Z,10.04
2023-02-22T15:15:49.205Z,10.00
2023-02-22T15:18:22.462Z,9.94
2023-02-22T15:20:58.630Z,9.89
2023-02-22T15:23:30.986Z,9.84
2023-02-22T15:26:01.022Z,9.78
2023-02-22T15:28:31.343Z,9.73
2023-02-22T15:31:23.946Z,9.69
2023-02-22T15:33:54.002Z,9.65
2023-02-22T15:36:27.707Z,9.60
2023-02-22T15:38:56.609Z,9.53
2023-02-22T15:41:31.985Z,9.47
2023-02-22T15:44:22.659Z,9.40
2023-02-22T15:46:55.720Z,9.31
2023-02-22T15:49:26.553Z,9.22
2023-02-22T15:52:20.080Z,9.17
2023-02-22T15:54:51.476Z,9.12
2023-02-22T15:57:25.601Z,9.07
2023-02-22T15:59:57.275Z,9.05
2023-02-22T16:02:39.633Z,9.01
2023-02-22T16:05:15.566Z,8.97
2023-02-22T16:07:50.510Z,8.95
2023-02-22T16:10:22.190Z,8.91
2023-02-22T16:13:05.933Z,8.86
2023-02-22T16:15:39.886Z,8.79
2023-02-22T16:18:25.905Z,8.74
2023-02-22T16:21:16.818Z,8.67
2023-02-22T16:23:57.394Z,8.62
2023-02-22T16:26:33.317Z,8.57
2023-02-22T16:29:08.798Z,8.51
2023-02-22T16:31:39.508Z,8.44
2023-02-22T16:34:12.488Z,8.36
2023-02-22T16:36:47.372Z,8.29
2023-02-22T16:39:45.641Z,8.23
2023-02-22T16:42:20.464Z,8.16
2023-02-22T16:44:49.862Z,8.11
2023-02-22T16:47:20.064Z,8.08
2023-02-22T16:49:53.133Z,8.04
2023-02-22T16:52:22.768Z,8.00
2023-02-22T16:54:52.992Z,7.96
2023-02-22T16:57:24.737Z,7.92
2023-02-22T16:59:56.614Z,7.89
2023-02-22T17:02:28.800Z,7.86
2023-02-22T17:04:58.482Z,7.82
2023-02-22T17:07:32.110Z,7.79
2023-02-22T17:10:01.294Z,7.76
2023-02-22T17:12:34.001Z,7.73
2023-02-22T17:15:04.340Z,7.69
2023-02-22T17:17:33.585Z,7.65
2023-02-22T17:20:07.604Z,7.59
2023-02-22T17:22:36.648Z,7.54
2023-02-22T17:25:39.104Z,7.49
2023-02-22T17:28:10.886Z,7.42
2023-02-22T17:30:43.502Z,7.36
2023-02-22T17:33:17.265Z,7.31
2023-02-22T17:35:50.534Z,7.25
2023-02-22T17:38:23.601Z,7.20
2023-02-22T17:40:55.071Z,7.14
2023-02-22T17:43:25.969Z,7.09
2023-02-22T17:46:05.072Z,7.05
2023-02-22T17:48:35.930Z,7.01
2023-02-22T17:51:08.143Z,6.98
2023-02-22T17:53:46.228Z,6.95
2023-02-22T17:56:20.950Z,6.93
2023-02-22T17:58:54.049Z,6.92
2023-02-22T18:01:27.657Z,6.90
2023-02-22T18:04:00.802Z,6.89
2023-02-22T18:06:34.390Z,6.87
2023-02-22T18:09:12.714Z,6.84
2023-02-22T18:11:46.144Z,6.82
2023-02-22T18:14:17.035Z,6.79
2023-02-22T18:16:48.949Z,6.78
2023-02-22T18:19:23.216Z,6.76
2023-02-22T18:21:54.359Z,6.75
2023-02-22T18:24:35.301Z,6.73
2023-02-22T18:27:11.604Z,6.71
2023-02-22T18:29:43.200Z,6.68
2023-02-22T18:32:14.689Z,6.67
2023-02-22T18:34:46.690Z,6.64
2023-02-22T18:37:22.609Z,6.62
2023-02-22T18:39:56.825Z,6.61
2023-02-22T18:42:29.135Z,6.59
2023-02-22T18:45:04.225Z,6.58
2023-02-22T18:47:46.370Z,6.57
2023-02-22T18:50:21.080Z,6.55
2023-02-22T18:52:51.973Z,6.53
2023-02-22T18:55:31.295Z,6.51
2023-02-22T18:58:03.040Z,6.50
2023-02-22T19:00:36.536Z,6.50
2023-02-22T19:03:13.059Z,6.49
2023-02-22T19:05:46.454Z,6.47
2023-02-22T19:08:18.670Z,6.43
2023-02-22T19:10:52.665Z,6.39
2023-02-22T19:13:23.605Z,6.35
2023-02-22T19:15:53.753Z,6.32
2023-02-22T19:18:28.114Z,6.28
2023-02-22T19:21:05.074Z,6.25
2023-02-22T19:23:38.820Z,6.19
2023-02-22T19:26:11.642Z,6.15
2023-02-22T19:28:43.576Z,6.10
2023-02-22T19:31:23.747Z,6.03
2023-02-22T19:33:56.486Z,5.96
2023-02-22T19:36:28.788Z,5.88
2023-02-22T19:39:03.850Z,5.80
2023-02-22T19:41:35.608Z,5.72
2023-02-22T19:44:08.084Z,5.65
2023-02-22T19:47:01.961Z,5.59
2023-02-22T19:49:40.519Z,5.53
2023-02-22T19:52:11.710Z,5.45
2023-02-22T19:54:44.010Z,5.39
2023-02-22T19:57:15.428Z,5.34
2023-02-22T19:59:46.959Z,5.28
2023-02-22T20:02:19.715Z,5.23
2023-02-22T20:04:53.847Z,5.18
2023-02-22T20:07:27.449Z,5.14
2023-02-22T20:10:02.897Z,5.11
2023-02-22T20:12:34.647Z,5.08
2023-02-22T20:15:09.542Z,5.06
2023-02-22T20:17:42.244Z,5.02
2023-02-22T20:20:16.723Z,5.00
2023-02-22T20:22:48.082Z,4.97
2023-02-22T20:25:19.439Z,4.94
2023-02-22T20:27:50.617Z,4.91
2023-02-22T20:30:22.186Z,4.87
2023-02-22T20:32:55.206Z,4.84
2023-02-22T20:35:32.691Z,4.82
2023-02-22T20:38:04.853Z,4.80
2023-02-22T20:40:39.187Z,4.78
2023-02-22T20:43:15.805Z,4.77
2023-02-22T20:45:48.342Z,4.75
2023-02-22T20:48:22.426Z,4.73
2023-02-22T20:50:55.796Z,4.70
2023-02-22T20:53:27.034Z,4.68
2023-02-22T20:56:00.453Z,4.66
2023-02-22T20:58:38.273Z,4.63
2023-02-22T21:01:17.932Z,4.60
2023-02-22T21:03:51.230Z,4.59
2023-02-22T21:06:23.732Z,4.57
2023-02-22T21:08:59.347Z,4.55
2023-02-22T21:11:33.029Z,4.53
2023-02-22T21:14:08.452Z,4.51
2023-02-22T21:16:49.190Z,4.49
2023-02-22T21:19:28.457Z,4.48
2023-02-22T21:22:01.782Z,4.47
2023-02-22T21:24:33.555Z,4.45
2023-02-22T21:27:13.397Z,4.43
2023-02-22T21:29:45.188Z,4.41
2023-02-22T21:32:16.927Z,4.37
2023-02-22T21:34:50.560Z,4.35
2023-02-22T21:37:23.403Z,4.32
2023-02-22T21:39:53.494Z,4.30
2023-02-22T21:42:25.267Z,4.27
2023-02-22T21:44:57.772Z,4.24
2023-02-22T21:47:28.358Z,4.22
2023-02-22T21:49:58.654Z,4.20
2023-02-22T21:52:28.157Z,4.17
2023-02-22T21:54:57.526Z,4.15
2023-02-22T21:57:26.639Z,4.11
2023-02-22T21:59:55.747Z,4.09
2023-02-22T22:02:24.739Z,4.06
2023-02-22T22:04:53.645Z,4.04
2023-02-22T22:07:23.683Z,4.01
2023-02-22T22:09:57.038Z,3.97
2023-02-22T22:12:37.548Z,3.93
2023-02-22T22:15:09.996Z,3.87
2023-02-22T22:17:39.277Z,3.80
2023-02-22T22:20:12.898Z,3.73
2023-02-22T22:22:43.827Z,3.66
2023-02-22T22:25:13.916Z,3.58
2023-02-22T22:27:43.049Z,3.51
2023-02-22T22:30:13.244Z,3.45
2023-02-22T22:32:41.924Z,3.39
2023-02-22T22:35:15.324Z,3.32
2023-02-22T22:37:44.896Z,3.24
2023-02-22T22:40:16.274Z,3.17
2023-02-22T22:42:46.454Z,3.11
2023-02-22T22:45:18.629Z,3.05
2023-02-22T22:47:47.565Z,2.99
2023-02-22T22:50:19.232Z,2.93
2023-02-22T22:52:49.477Z,2.88
2023-02-22T22:55:19.566Z,2.83
2023-02-22T22:57:48.474Z,2.79
2023-02-22T23:00:30.154Z,2.74
2023-02-22T23:02:59.474Z,2.70
2023-02-22T23:05:29.585Z,2.66
2023-02-22T23:08:05.404Z,2.62
2023-02-22T23:10:39.640Z,2.57
2023-02-22T23:13:15.833Z,2.53
2023-02-22T23:15:47.977Z,2.48
2023-02-22T23:18:21.245Z,2.45
2023-02-22T23:20:59.423Z,2.41
2023-02-22T23:23:28.246Z,2.37
2023-02-22T23:26:27.513Z,2.33
2023-02-22T23:28:59.774Z,2.28
2023-02-22T23:31:32.425Z,2.25
2023-02-22T23:34:07.057Z,2.21
2023-02-22T23:36:40.391Z,2.18
2023-02-22T23:39:09.109Z,2.15
2023-02-22T23:41:38.187Z,2.11
2023-02-22T23:44:10.596Z,2.08
2023-02-22T23:46:41.465Z,2.05
2023-02-22T23:49:10.507Z,2.01
2023-02-22T23:51:40.626Z,1.97
2023-02-22T23:54:12.803Z,1.94
2023-02-22T23:57:03.211Z,1.90
2023-02-22T23:59:33.086Z,1.86
